createdAt,value
2018-11-03T00:00:43.742Z,64.90
2018-11-03T00:03:12.659Z,65.00
2018-11-03T00:05:41.584Z,65.00
2018-11-03T00:08:10.657Z,65.00
2018-11-03T00:10:39.493Z,65.10
2018-11-03T00:13:08.364Z,65.00
2018-11-03T00:15:37.770Z,65.20
2018-11-03T00:18:07.145Z,65.20
2018-11-03T00:20:36.162Z,65.10
2018-11-03T00:23:05.126Z,65.10
2018-11-03T00:25:33.877Z,65.20
2018-11-03T00:28:02.831Z,65.20
2018-11-03T00:30:31.717Z,65.20
2018-11-03T00:33:00.648Z,65.10
2018-11-03T00:35:29.509Z,65.10
2018-11-03T00:37:58.456Z,65.10
2018-11-03T00:40:27.270Z,65.10
2018-11-03T00:42:56.416Z,65.10
2018-11-03T00:45:25.330Z,65.10
2018-11-03T00:47:54.361Z,65.00
2018-11-03T00:50:23.388Z,65.00
2018-11-03T00:52:52.372Z,65.00
2018-11-03T00:55:21.269Z,65.10
2018-11-03T00:57:50.140Z,65.20
2018-11-03T01:00:19.614Z,65.10
2018-11-03T01:02:49.590Z,65.30
2018-11-03T01:05:18.593Z,65.20
2018-11-03T01:07:47.930Z,64.90
2018-11-03T01:10:17.700Z,65.30
2018-11-03T01:12:46.606Z,65.10
2018-11-03T01:15:17.238Z,65.00
2018-11-03T01:17:46.645Z,65.00
2018-11-03T01:20:16.955Z,65.00
2018-11-03T01:22:46.112Z,64.90
2018-11-03T01:25:15.209Z,65.00
2018-11-03T01:27:44.029Z,64.90
2018-11-03T01:30:14.809Z,64.80
2018-11-03T01:32:43.940Z,65.00
2018-11-03T01:35:12.675Z,64.90
2018-11-03T01:37:41.485Z,65.00
2018-11-03T01:40:11.955Z,65.10
2018-11-03T01:42:41.060Z,65.10
2018-11-03T01:45:10.086Z,65.10
2018-11-03T01:47:38.936Z,65.30
2018-11-03T01:50:09.429Z,65.40
2018-11-03T01:52:39.163Z,65.20
2018-11-03T01:55:08.393Z,65.50
2018-11-03T01:57:37.894Z,65.10
2018-11-03T02:00:07.662Z,65.00
2018-11-03T02:02:36.625Z,65.10
2018-11-03T02:05:06.172Z,65.00
2018-11-03T02:07:35.181Z,65.00
2018-11-03T02:10:04.034Z,65.20
2018-11-03T02:12:33.001Z,65.20
2018-11-03T02:15:01.930Z,65.10
2018-11-03T02:17:30.837Z,65.10
2018-11-03T02:19:59.649Z,65.10
2018-11-03T02:22:28.645Z,65.20
2018-11-03T02:24:57.480Z,65.10
2018-11-03T02:27:26.480Z,65.10
2018-11-03T02:29:55.395Z,65.10
2018-11-03T02:32:24.307Z,65.20
2018-11-03T02:34:53.420Z,65.30
2018-11-03T02:37:22.405Z,65.30
2018-11-03T02:39:51.452Z,65.60
2018-11-03T02:42:20.487Z,65.60
2018-11-03T02:44:49.449Z,66.50
2018-11-03T02:47:18.509Z,65.10
2018-11-03T02:49:47.388Z,66.50
2018-11-03T02:52:16.437Z,66.50
2018-11-03T02:54:45.285Z,66.60
2018-11-03T02:57:14.302Z,66.40
2018-11-03T02:59:43.337Z,66.70
2018-11-03T03:02:12.241Z,66.40
2018-11-03T03:04:41.217Z,66.30
2018-11-03T03:07:10.184Z,66.00
2018-11-03T03:09:39.178Z,64.00
2018-11-03T03:12:08.166Z,66.30
2018-11-03T03:14:37.068Z,66.20
2018-11-03T03:17:05.992Z,66.10
2018-11-03T03:19:34.898Z,65.90
2018-11-03T03:22:03.953Z,65.80
2018-11-03T03:24:32.789Z,65.80
2018-11-03T03:27:01.753Z,65.70
2018-11-03T03:29:30.787Z,65.70
2018-11-03T03:31:59.623Z,65.80
2018-11-03T03:34:28.478Z,65.80
2018-11-03T03:36:57.534Z,65.80
2018-11-03T03:39:26.320Z,65.90
2018-11-03T03:41:55.142Z,65.90
2018-11-03T03:44:24.178Z,65.80
2018-11-03T03:46:53.128Z,65.70
2018-11-03T03:49:22.220Z,65.70
2018-11-03T03:51:51.342Z,65.70
2018-11-03T03:54:20.164Z,65.70
2018-11-03T03:56:49.189Z,65.60
2018-11-03T03:59:18.115Z,65.70
2018-11-03T04:01:47.186Z,65.70
2018-11-03T04:04:16.030Z,65.80
2018-11-03T04:06:45.111Z,65.70
2018-11-03T04:09:14.112Z,65.70
2018-11-03T04:11:43.093Z,65.80
2018-11-03T04:14:11.982Z,65.70
2018-11-03T04:16:40.904Z,65.70
2018-11-03T04:19:09.961Z,65.70
2018-11-03T04:21:39.004Z,65.70
2018-11-03T04:24:08.086Z,65.70
2018-11-03T04:26:37.021Z,65.80
2018-11-03T04:29:06.171Z,65.70
2018-11-03T04:31:35.041Z,65.70
2018-11-03T04:34:03.973Z,65.90
2018-11-03T04:36:32.946Z,65.80
2018-11-03T04:39:01.999Z,65.90
2018-11-03T04:41:31.003Z,65.90
2018-11-03T04:44:00.024Z,65.80
2018-11-03T04:46:28.962Z,65.80
2018-11-03T04:49:03.692Z,65.70
2018-11-03T04:51:34.022Z,65.70
2018-11-03T04:54:03.077Z,65.70
2018-11-03T04:56:32.178Z,65.80
2018-11-03T04:59:01.160Z,66.50
2018-11-03T05:01:30.337Z,66.50
2018-11-03T05:03:59.072Z,65.80
2018-11-03T05:06:27.945Z,65.80
2018-11-03T05:08:56.829Z,65.70
2018-11-03T05:11:25.777Z,65.90
2018-11-03T05:13:54.646Z,66.00
2018-11-03T05:16:23.833Z,65.90
2018-11-03T05:18:52.629Z,65.80
2018-11-03T05:21:21.661Z,65.70
2018-11-03T05:23:50.489Z,65.80
2018-11-03T05:26:19.653Z,65.80
2018-11-03T05:28:48.566Z,65.70
2018-11-03T05:31:17.619Z,65.60
2018-11-03T05:33:46.411Z,65.70
2018-11-03T05:36:15.439Z,65.70
2018-11-03T05:38:44.285Z,65.70
2018-11-03T05:41:13.153Z,65.70
2018-11-03T05:43:42.184Z,65.70
2018-11-03T05:46:12.007Z,65.70
2018-11-03T05:48:41.071Z,65.80
2018-11-03T05:51:10.169Z,65.80
2018-11-03T05:53:38.945Z,65.70
2018-11-03T05:56:08.014Z,65.80
2018-11-03T05:58:36.898Z,65.70
2018-11-03T06:01:05.904Z,65.70
2018-11-03T06:03:34.885Z,65.70
2018-11-03T06:06:03.654Z,65.70
2018-11-03T06:08:32.774Z,65.70
2018-11-03T06:11:01.816Z,65.70
2018-11-03T06:13:31.034Z,65.60
2018-11-03T06:15:59.812Z,65.80
2018-11-03T06:18:28.790Z,65.80
2018-11-03T06:20:57.537Z,66.60
2018-11-03T06:23:26.686Z,66.10
2018-11-03T06:25:55.513Z,65.40
2018-11-03T06:28:24.669Z,65.80
2018-11-03T06:30:53.556Z,65.70
2018-11-03T06:33:22.557Z,65.70
2018-11-03T06:35:51.564Z,65.50
2018-11-03T06:38:20.941Z,65.50
2018-11-03T06:40:49.895Z,65.40
2018-11-03T06:43:18.907Z,65.30
2018-11-03T06:45:47.950Z,65.30
2018-11-03T06:48:17.641Z,65.40
2018-11-03T06:50:46.701Z,65.40
2018-11-03T06:53:15.789Z,65.30
2018-11-03T06:55:44.699Z,65.60
2018-11-03T06:58:13.845Z,65.60
2018-11-03T07:00:42.753Z,65.60
2018-11-03T07:03:11.840Z,65.50
2018-11-03T07:05:40.830Z,65.40
2018-11-03T07:08:09.941Z,65.20
2018-11-03T07:10:38.737Z,65.10
2018-11-03T07:13:07.760Z,65.10
2018-11-03T07:15:36.744Z,65.00
2018-11-03T07:18:05.805Z,64.90
2018-11-03T07:20:34.877Z,64.80
2018-11-03T07:23:03.869Z,65.10
2018-11-03T07:25:33.054Z,65.20
2018-11-03T07:28:02.078Z,65.20
2018-11-03T07:30:31.041Z,65.00
2018-11-03T07:32:59.770Z,65.00
2018-11-03T07:35:28.668Z,65.10
2018-11-03T07:37:57.596Z,64.50
2018-11-03T07:40:26.448Z,65.10
2018-11-03T07:42:55.653Z,65.50
2018-11-03T07:45:24.622Z,65.70
2018-11-03T07:47:53.658Z,66.00
2018-11-03T07:50:22.433Z,64.40
2018-11-03T07:52:51.194Z,66.00
2018-11-03T07:55:20.082Z,66.60
2018-11-03T07:57:49.024Z,65.80
2018-11-03T08:00:18.166Z,65.50
2018-11-03T08:02:47.229Z,65.30
2018-11-03T08:05:16.165Z,65.40
2018-11-03T08:07:45.033Z,65.30
2018-11-03T08:10:13.985Z,65.60
2018-11-03T08:12:42.893Z,66.00
2018-11-03T08:15:12.287Z,65.90
2018-11-03T08:17:41.286Z,66.50
2018-11-03T08:20:11.260Z,65.90
2018-11-03T08:22:40.584Z,66.20
2018-11-03T08:25:09.770Z,65.80
2018-11-03T08:27:39.213Z,66.30
2018-11-03T08:30:10.464Z,66.30
2018-11-03T08:32:39.575Z,66.00
2018-11-03T08:35:09.211Z,65.70
2018-11-03T08:37:38.610Z,65.60
2018-11-03T08:40:09.542Z,65.50
2018-11-03T08:42:38.869Z,65.20
2018-11-03T08:45:08.353Z,66.80
2018-11-03T08:47:37.394Z,66.20
2018-11-03T08:50:07.561Z,65.30
2018-11-03T08:52:36.962Z,65.70
2018-11-03T08:55:06.992Z,66.00
2018-11-03T08:57:35.953Z,65.80
2018-11-03T09:00:06.966Z,65.30
2018-11-03T09:02:35.869Z,68.20
2018-11-03T09:05:04.773Z,68.60
2018-11-03T09:07:33.586Z,68.70
2018-11-03T09:10:02.472Z,70.50
2018-11-03T09:12:31.617Z,68.40
2018-11-03T09:15:00.711Z,69.10
2018-11-03T09:17:29.716Z,68.00
2018-11-03T09:19:58.790Z,68.70
2018-11-03T09:22:27.763Z,68.60
2018-11-03T09:24:56.716Z,69.70
2018-11-03T09:27:25.660Z,70.70
2018-11-03T09:29:54.533Z,68.00
2018-11-03T09:32:23.434Z,66.40
2018-11-03T09:34:52.213Z,67.10
2018-11-03T09:37:21.231Z,68.00
2018-11-03T09:39:50.212Z,65.10
2018-11-03T09:42:19.449Z,65.70
2018-11-03T09:44:48.267Z,64.10
2018-11-03T09:47:17.185Z,63.80
2018-11-03T09:49:46.122Z,63.20
2018-11-03T09:52:14.986Z,63.70
2018-11-03T09:54:43.893Z,64.20
2018-11-03T09:57:13.094Z,64.10
2018-11-03T09:59:42.096Z,64.70
2018-11-03T10:02:11.045Z,66.50
2018-11-03T10:04:39.944Z,64.10
2018-11-03T10:07:08.973Z,65.20
2018-11-03T10:09:37.973Z,65.40
2018-11-03T10:12:06.894Z,68.50
2018-11-03T10:14:36.012Z,65.50
2018-11-03T10:17:04.980Z,67.40
2018-11-03T10:19:33.919Z,67.60
2018-11-03T10:22:03.003Z,66.80
2018-11-03T10:24:31.970Z,65.50
2018-11-03T10:27:00.945Z,62.20
2018-11-03T10:29:29.830Z,65.20
2018-11-03T10:31:58.892Z,65.50
2018-11-03T10:34:27.973Z,68.10
2018-11-03T10:36:56.961Z,66.00
2018-11-03T10:39:25.848Z,62.40
2018-11-03T10:41:54.797Z,64.40
2018-11-03T10:44:23.813Z,62.90
2018-11-03T10:46:52.818Z,64.10
2018-11-03T10:49:21.722Z,63.60
2018-11-03T10:51:50.757Z,62.60
2018-11-03T10:54:19.726Z,65.10
2018-11-03T10:56:48.709Z,64.40
2018-11-03T10:59:17.565Z,62.00
2018-11-03T11:01:51.912Z,63.10
2018-11-03T11:04:25.968Z,61.60
2018-11-03T11:07:00.031Z,60.50
2018-11-03T11:10:34.989Z,61.90
2018-11-03T11:13:06.939Z,64.10
2018-11-03T11:15:35.909Z,62.20
2018-11-03T11:18:04.857Z,62.10
2018-11-03T11:20:33.890Z,63.50
2018-11-03T11:23:02.759Z,61.70
2018-11-03T11:25:31.819Z,61.90
2018-11-03T11:28:00.806Z,59.10
2018-11-03T11:30:35.148Z,62.10
2018-11-03T11:33:04.590Z,60.60
2018-11-03T11:35:33.804Z,60.00
2018-11-03T11:38:04.290Z,61.90
2018-11-03T11:40:33.922Z,59.00
2018-11-03T11:43:03.644Z,65.00
2018-11-03T11:45:32.646Z,65.00
2018-11-03T11:48:01.649Z,64.10
2018-11-03T11:50:30.669Z,64.10
2018-11-03T11:52:59.547Z,64.30
2018-11-03T11:55:28.560Z,63.90
2018-11-03T11:57:57.348Z,61.10
2018-11-03T12:00:26.567Z,63.70
2018-11-03T12:02:55.751Z,67.90
2018-11-03T12:05:24.710Z,66.10
2018-11-03T12:07:53.730Z,68.90
2018-11-03T12:10:22.687Z,67.80
2018-11-03T12:12:51.537Z,66.40
2018-11-03T12:15:20.566Z,65.50
2018-11-03T12:17:49.575Z,62.00
2018-11-03T12:20:18.505Z,66.70
2018-11-03T12:22:47.753Z,65.90
2018-11-03T12:25:16.629Z,65.60
2018-11-03T12:27:45.546Z,64.60
2018-11-03T12:30:15.320Z,65.20
2018-11-03T12:32:44.250Z,65.80
2018-11-03T12:35:13.267Z,65.60
2018-11-03T12:37:42.286Z,64.10
2018-11-03T12:40:13.749Z,63.50
2018-11-03T12:42:43.546Z,63.30
2018-11-03T12:45:13.040Z,63.60
2018-11-03T12:47:42.361Z,62.70
2018-11-03T12:50:15.325Z,62.50
2018-11-03T12:52:44.342Z,62.80
2018-11-03T12:55:13.668Z,62.90
2018-11-03T12:57:43.198Z,63.70
2018-11-03T13:00:14.818Z,65.80
2018-11-03T13:02:44.948Z,62.90
2018-11-03T13:05:14.267Z,65.60
2018-11-03T13:07:44.538Z,64.10
2018-11-03T13:10:13.730Z,64.60
2018-11-03T13:12:43.152Z,64.30
2018-11-03T13:15:13.295Z,64.00
2018-11-03T13:17:42.246Z,63.20
2018-11-03T13:20:12.708Z,64.40
2018-11-03T13:22:42.337Z,64.10
2018-11-03T13:25:11.844Z,63.50
2018-11-03T13:27:41.396Z,61.10
2018-11-03T13:30:12.755Z,62.70
2018-11-03T13:32:41.585Z,62.30
2018-11-03T13:35:11.889Z,61.80
2018-11-03T13:37:41.025Z,61.60
2018-11-03T13:40:11.533Z,61.70
2018-11-03T13:42:40.709Z,62.00
2018-11-03T13:45:10.261Z,61.60
2018-11-03T13:47:39.753Z,64.10
2018-11-03T13:50:11.388Z,62.60
2018-11-03T13:52:41.743Z,65.30
2018-11-03T13:55:10.977Z,63.90
2018-11-03T13:57:40.485Z,64.30
2018-11-03T14:00:11.750Z,64.00
2018-11-03T14:02:41.473Z,63.70
2018-11-03T14:05:11.173Z,64.00
2018-11-03T14:07:40.120Z,63.60
2018-11-03T14:10:11.110Z,64.30
2018-11-03T14:12:40.157Z,62.00
2018-11-03T14:15:11.334Z,62.50
2018-11-03T14:17:40.268Z,61.50
2018-11-03T14:20:10.891Z,61.50
2018-11-03T14:22:39.817Z,61.70
2018-11-03T14:25:10.487Z,61.50
2018-11-03T14:27:39.597Z,60.70
2018-11-03T14:30:09.902Z,62.00
2018-11-03T14:32:38.895Z,61.20
2018-11-03T14:35:08.396Z,63.70
2018-11-03T14:37:37.434Z,63.90
2018-11-03T14:40:08.481Z,64.00
2018-11-03T14:42:37.441Z,63.90
2018-11-03T14:45:07.347Z,63.50
2018-11-03T14:47:36.312Z,64.20
2018-11-03T14:50:06.047Z,63.20
2018-11-03T14:52:36.585Z,63.50
2018-11-03T14:55:06.359Z,64.90
2018-11-03T14:57:35.641Z,63.70
2018-11-03T15:00:04.969Z,63.10
2018-11-03T15:02:34.025Z,63.10
2018-11-03T15:05:03.061Z,63.00
2018-11-03T15:07:32.158Z,63.90
2018-11-03T15:10:01.221Z,63.50
2018-11-03T15:12:30.265Z,63.50
2018-11-03T15:14:59.336Z,63.40
2018-11-03T15:17:28.435Z,62.80
2018-11-03T15:19:57.313Z,62.70
2018-11-03T15:22:26.242Z,63.30
2018-11-03T15:24:55.397Z,63.50
2018-11-03T15:27:24.396Z,63.60
2018-11-03T15:29:53.177Z,63.70
2018-11-03T15:32:22.146Z,63.70
2018-11-03T15:34:51.260Z,63.70
2018-11-03T15:37:20.227Z,64.10
2018-11-03T15:39:49.304Z,64.50
2018-11-03T15:42:18.422Z,64.00
2018-11-03T15:44:47.317Z,64.90
2018-11-03T15:47:16.449Z,65.10
2018-11-03T15:49:45.465Z,65.60
2018-11-03T15:52:14.325Z,65.80
2018-11-03T15:54:43.434Z,66.10
2018-11-03T15:57:12.313Z,66.90
2018-11-03T15:59:41.246Z,66.80
2018-11-03T16:02:10.284Z,67.00
2018-11-03T16:04:39.254Z,67.40
2018-11-03T16:07:08.396Z,67.40
2018-11-03T16:09:37.362Z,67.60
2018-11-03T16:12:06.698Z,67.80
2018-11-03T16:14:35.809Z,68.00
2018-11-03T16:17:04.810Z,67.90
2018-11-03T16:19:33.699Z,68.30
2018-11-03T16:22:02.594Z,68.40
2018-11-03T16:24:31.533Z,68.50
2018-11-03T16:27:00.489Z,68.60
2018-11-03T16:29:29.550Z,69.70
2018-11-03T16:31:58.703Z,70.10
2018-11-03T16:34:27.744Z,70.10
2018-11-03T16:36:56.681Z,69.80
2018-11-03T16:39:25.805Z,69.60
2018-11-03T16:41:54.749Z,69.40
2018-11-03T16:44:23.777Z,69.30
2018-11-03T16:46:52.708Z,69.10
2018-11-03T16:49:22.297Z,69.00
2018-11-03T16:51:51.391Z,68.80
2018-11-03T16:54:20.196Z,68.00
2018-11-03T16:56:49.152Z,68.50
2018-11-03T16:59:18.116Z,68.60
2018-11-03T17:01:47.085Z,68.70
2018-11-03T17:04:16.037Z,68.70
2018-11-03T17:06:45.202Z,68.50
2018-11-03T17:09:14.547Z,68.40
2018-11-03T17:11:43.631Z,68.40
2018-11-03T17:14:12.661Z,68.40
2018-11-03T17:16:41.629Z,68.40
2018-11-03T17:19:10.770Z,68.30
2018-11-03T17:21:39.753Z,68.30
2018-11-03T17:24:08.901Z,68.80
2018-11-03T17:26:37.737Z,68.30
2018-11-03T17:29:06.696Z,68.30
2018-11-03T17:31:35.940Z,68.30
2018-11-03T17:34:05.489Z,68.30
2018-11-03T17:36:34.541Z,68.20
2018-11-03T17:39:04.644Z,68.20
2018-11-03T17:41:33.559Z,68.20
2018-11-03T17:44:02.726Z,68.30
2018-11-03T17:46:31.677Z,68.20
2018-11-03T17:49:00.685Z,68.10
2018-11-03T17:51:29.645Z,68.20
2018-11-03T17:53:58.441Z,68.20
2018-11-03T17:56:27.473Z,68.20
2018-11-03T17:58:56.414Z,68.50
2018-11-03T18:01:29.032Z,68.40
2018-11-03T18:03:57.789Z,68.40
2018-11-03T18:06:26.982Z,68.30
2018-11-03T18:08:56.017Z,68.10
2018-11-03T18:11:25.140Z,68.10
2018-11-03T18:13:54.501Z,68.40
2018-11-03T18:16:23.601Z,68.40
2018-11-03T18:18:52.581Z,68.20
2018-11-03T18:21:21.632Z,68.20
2018-11-03T18:23:50.773Z,68.20
2018-11-03T18:26:20.092Z,68.20
2018-11-03T18:28:48.986Z,68.10
2018-11-03T18:31:17.897Z,68.90
2018-11-03T18:33:46.781Z,68.20
2018-11-03T18:36:15.781Z,68.20
2018-11-03T18:38:44.854Z,68.20
2018-11-03T18:41:13.931Z,68.10
2018-11-03T18:43:42.924Z,68.10
2018-11-03T18:46:11.938Z,68.10
2018-11-03T18:48:41.429Z,68.00
2018-11-03T18:51:10.553Z,68.00
2018-11-03T18:53:39.432Z,68.00
2018-11-03T18:56:08.429Z,68.00
2018-11-03T18:58:37.454Z,68.00
2018-11-03T19:01:06.548Z,68.00
2018-11-03T19:03:35.587Z,68.00
2018-11-03T19:06:04.702Z,68.00
2018-11-03T19:08:33.810Z,67.90
2018-11-03T19:11:02.746Z,68.40
2018-11-03T19:13:31.813Z,67.90
2018-11-03T19:16:00.794Z,68.00
2018-11-03T19:18:29.721Z,68.00
2018-11-03T19:20:58.705Z,67.90
2018-11-03T19:23:28.053Z,67.90
2018-11-03T19:25:57.117Z,67.90
2018-11-03T19:28:26.053Z,67.90
2018-11-03T19:30:55.029Z,67.90
2018-11-03T19:33:24.074Z,67.80
2018-11-03T19:35:53.092Z,67.80
2018-11-03T19:38:22.216Z,67.80
2018-11-03T19:40:51.292Z,67.80
2018-11-03T19:43:20.398Z,67.80
2018-11-03T19:45:49.361Z,67.80
2018-11-03T19:48:18.336Z,67.80
2018-11-03T19:50:47.273Z,67.80
2018-11-03T19:53:16.302Z,67.80
2018-11-03T19:55:45.180Z,67.70
2018-11-03T19:58:14.114Z,67.10
2018-11-03T20:00:42.977Z,67.80
2018-11-03T20:03:12.070Z,67.80
2018-11-03T20:05:40.936Z,67.80
2018-11-03T20:08:09.920Z,67.70
2018-11-03T20:10:38.810Z,67.90
2018-11-03T20:13:07.789Z,67.70
2018-11-03T20:15:36.668Z,67.70
2018-11-03T20:18:05.808Z,67.60
2018-11-03T20:20:34.712Z,67.60
2018-11-03T20:23:03.729Z,67.60
2018-11-03T20:25:32.646Z,67.60
2018-11-03T20:28:01.729Z,67.60
2018-11-03T20:30:30.698Z,67.60
2018-11-03T20:32:59.649Z,68.30
2018-11-03T20:35:28.666Z,67.50
2018-11-03T20:37:57.662Z,67.50
2018-11-03T20:40:26.745Z,67.50
2018-11-03T20:42:55.785Z,67.50
2018-11-03T20:45:24.943Z,67.50
2018-11-03T20:47:53.878Z,67.50
2018-11-03T20:50:23.042Z,67.50
2018-11-03T20:52:51.929Z,67.50
2018-11-03T20:55:20.932Z,67.50
2018-11-03T20:57:49.793Z,68.20
2018-11-03T21:00:18.681Z,67.40
2018-11-03T21:02:47.546Z,68.20
2018-11-03T21:05:16.478Z,67.50
2018-11-03T21:07:45.344Z,67.50
2018-11-03T21:10:14.340Z,67.40
2018-11-03T21:12:43.316Z,67.70
2018-11-03T21:15:12.250Z,67.30
2018-11-03T21:17:41.224Z,67.40
2018-11-03T21:20:10.210Z,67.30
2018-11-03T21:22:39.166Z,67.30
2018-11-03T21:25:08.026Z,67.30
2018-11-03T21:27:36.836Z,67.30
2018-11-03T21:30:06.820Z,67.30
2018-11-03T21:32:35.742Z,67.20
2018-11-03T21:35:04.706Z,67.30
2018-11-03T21:37:33.675Z,67.20
2018-11-03T21:40:02.721Z,67.20
2018-11-03T21:42:31.594Z,67.20
2018-11-03T21:45:00.568Z,67.20
2018-11-03T21:47:29.502Z,67.20
2018-11-03T21:49:58.550Z,67.30
2018-11-03T21:52:27.564Z,67.20
2018-11-03T21:54:56.523Z,67.10
2018-11-03T21:57:25.742Z,67.00
2018-11-03T21:59:54.599Z,67.10
2018-11-03T22:02:23.665Z,67.10
2018-11-03T22:04:52.557Z,67.00
2018-11-03T22:07:21.586Z,67.10
2018-11-03T22:09:50.441Z,67.10
2018-11-03T22:12:19.417Z,67.00
2018-11-03T22:14:48.233Z,67.00
2018-11-03T22:17:17.261Z,67.00
2018-11-03T22:19:46.185Z,67.00
2018-11-03T22:22:15.146Z,67.00
2018-11-03T22:24:44.047Z,67.00
2018-11-03T22:27:13.254Z,66.90
2018-11-03T22:29:42.105Z,66.90
2018-11-03T22:32:10.989Z,66.90
2018-11-03T22:34:39.968Z,66.90
2018-11-03T22:37:09.000Z,66.90
2018-11-03T22:39:37.977Z,66.90
2018-11-03T22:42:07.144Z,67.00
2018-11-03T22:44:36.095Z,66.90
2018-11-03T22:47:05.120Z,66.90
2018-11-03T22:49:34.108Z,66.90
2018-11-03T22:52:06.078Z,66.90
2018-11-03T22:54:35.744Z,66.90
2018-11-03T22:57:04.742Z,66.90
2018-11-03T22:59:33.584Z,66.90
2018-11-03T23:02:02.481Z,66.80
2018-11-03T23:04:31.457Z,66.90
2018-11-03T23:07:00.354Z,66.90
2018-11-03T23:09:29.333Z,66.80
2018-11-03T23:11:58.697Z,66.70
2018-11-03T23:14:27.854Z,66.80
2018-11-03T23:16:56.937Z,66.70
2018-11-03T23:19:26.084Z,66.70
2018-11-03T23:21:54.958Z,66.70
2018-11-03T23:24:24.005Z,66.70
2018-11-03T23:26:52.901Z,66.70
2018-11-03T23:29:21.776Z,66.90
2018-11-03T23:31:50.773Z,66.90
2018-11-03T23:34:19.799Z,66.70
2018-11-03T23:36:48.736Z,66.80
2018-11-03T23:39:17.630Z,66.80
2018-11-03T23:41:46.585Z,66.80
2018-11-03T23:44:15.629Z,66.70
2018-11-03T23:46:44.595Z,66.60
2018-11-03T23:49:13.554Z,66.70
2018-11-03T23:51:42.511Z,66.70
2018-11-03T23:54:11.424Z,66.70
2018-11-03T23:56:40.383Z,66.70
2018-11-03T23:59:09.364Z,66.70
